sensor_id;sensor_type;location;lat;lon;timestamp;P1;durP1;ratioP1;P2;durP2;ratioP2
13743;SDS011;6943;52.368;9.966;2023-04-06T00:00:25;19.43;;;13.87;;
13743;SDS011;6943;52.368;9.966;2023-04-06T00:02:51;14.07;;;12.77;;
13743;SDS011;6943;52.368;9.966;2023-04-06T00:05:20;14.37;;;12.87;;
13743;SDS011;6943;52.368;9.966;2023-04-06T00:07:47;13.00;;;11.80;;
13743;SDS011;6943;52.368;9.966;2023-04-06T00:10:13;13.63;;;12.23;;
13743;SDS011;6943;52.368;9.966;2023-04-06T00:12:39;15.90;;;12.77;;
13743;SDS011;6943;52.368;9.966;2023-04-06T00:15:04;15.90;;;13.37;;
13743;SDS011;6943;52.368;9.966;2023-04-06T00:17:31;17.23;;;13.53;;
13743;SDS011;6943;52.368;9.966;2023-04-06T00:19:56;15.10;;;13.57;;
13743;SDS011;6943;52.368;9.966;2023-04-06T00:22:22;15.63;;;13.87;;
13743;SDS011;6943;52.368;9.966;2023-04-06T00:24:47;15.07;;;13.57;;
13743;SDS011;6943;52.368;9.966;2023-04-06T00:27:12;14.73;;;11.93;;
13743;SDS011;6943;52.368;9.966;2023-04-06T00:29:39;14.83;;;12.90;;
13743;SDS011;6943;52.368;9.966;2023-04-06T00:32:04;16.47;;;12.23;;
13743;SDS011;6943;52.368;9.966;2023-04-06T00:34:30;15.07;;;13.47;;
13743;SDS011;6943;52.368;9.966;2023-04-06T00:36:55;14.20;;;12.60;;
13743;SDS011;6943;52.368;9.966;2023-04-06T00:39:21;15.10;;;12.47;;
13743;SDS011;6943;52.368;9.966;2023-04-06T00:41:49;14.83;;;12.53;;
13743;SDS011;6943;52.368;9.966;2023-04-06T00:44:17;14.27;;;11.73;;
13743;SDS011;6943;52.368;9.966;2023-04-06T00:46:43;14.57;;;11.73;;
13743;SDS011;6943;52.368;9.966;2023-04-06T00:49:09;15.40;;;12.03;;
13743;SDS011;6943;52.368;9.966;2023-04-06T00:51:35;14.20;;;12.70;;
13743;SDS011;6943;52.368;9.966;2023-04-06T00:54:00;12.23;;;10.93;;
13743;SDS011;6943;52.368;9.966;2023-04-06T00:56:26;13.30;;;11.00;;
13743;SDS011;6943;52.368;9.966;2023-04-06T00:58:52;12.30;;;11.07;;
13743;SDS011;6943;52.368;9.966;2023-04-06T01:01:17;12.10;;;10.83;;
13743;SDS011;6943;52.368;9.966;2023-04-06T01:03:43;11.53;;;10.33;;
13743;SDS011;6943;52.368;9.966;2023-04-06T01:06:12;11.73;;;10.53;;
13743;SDS011;6943;52.368;9.966;2023-04-06T01:08:37;13.47;;;12.07;;
13743;SDS011;6943;52.368;9.966;2023-04-06T01:11:03;12.73;;;11.37;;
13743;SDS011;6943;52.368;9.966;2023-04-06T01:13:28;13.33;;;11.23;;
13743;SDS011;6943;52.368;9.966;2023-04-06T01:15:54;14.87;;;11.83;;
13743;SDS011;6943;52.368;9.966;2023-04-06T01:18:24;12.93;;;10.93;;
13743;SDS011;6943;52.368;9.966;2023-04-06T01:20:51;13.43;;;10.50;;
13743;SDS011;6943;52.368;9.966;2023-04-06T01:23:17;13.00;;;10.43;;
13743;SDS011;6943;52.368;9.966;2023-04-06T01:25:42;11.87;;;10.60;;
13743;SDS011;6943;52.368;9.966;2023-04-06T01:28:07;11.07;;;9.83;;
13743;SDS011;6943;52.368;9.966;2023-04-06T01:30:33;10.90;;;9.70;;
13743;SDS011;6943;52.368;9.966;2023-04-06T01:32:58;12.93;;;10.73;;
13743;SDS011;6943;52.368;9.966;2023-04-06T01:35:25;11.80;;;10.50;;
13743;SDS011;6943;52.368;9.966;2023-04-06T01:37:51;12.73;;;11.20;;
13743;SDS011;6943;52.368;9.966;2023-04-06T01:40:17;13.83;;;11.67;;
13743;SDS011;6943;52.368;9.966;2023-04-06T01:42:42;14.60;;;12.07;;
13743;SDS011;6943;52.368;9.966;2023-04-06T01:45:08;12.40;;;11.10;;
13743;SDS011;6943;52.368;9.966;2023-04-06T01:47:34;15.87;;;12.03;;
13743;SDS011;6943;52.368;9.966;2023-04-06T01:49:59;14.63;;;12.53;;
13743;SDS011;6943;52.368;9.966;2023-04-06T01:52:25;13.60;;;12.13;;
13743;SDS011;6943;52.368;9.966;2023-04-06T01:54:50;13.33;;;11.53;;
13743;SDS011;6943;52.368;9.966;2023-04-06T01:57:16;13.90;;;12.40;;
13743;SDS011;6943;52.368;9.966;2023-04-06T01:59:41;13.83;;;12.03;;
13743;SDS011;6943;52.368;9.966;2023-04-06T02:02:07;17.27;;;12.70;;
13743;SDS011;6943;52.368;9.966;2023-04-06T02:04:32;14.73;;;11.40;;
13743;SDS011;6943;52.368;9.966;2023-04-06T02:06:58;15.93;;;11.77;;
13743;SDS011;6943;52.368;9.966;2023-04-06T02:09:23;14.10;;;12.50;;
13743;SDS011;6943;52.368;9.966;2023-04-06T02:11:48;13.80;;;12.37;;
13743;SDS011;6943;52.368;9.966;2023-04-06T02:14:14;16.77;;;13.03;;
13743;SDS011;6943;52.368;9.966;2023-04-06T02:16:40;15.77;;;12.77;;
13743;SDS011;6943;52.368;9.966;2023-04-06T02:19:05;15.00;;;12.80;;
13743;SDS011;6943;52.368;9.966;2023-04-06T02:21:31;16.63;;;12.90;;
13743;SDS011;6943;52.368;9.966;2023-04-06T02:23:56;16.03;;;12.60;;
13743;SDS011;6943;52.368;9.966;2023-04-06T02:26:21;16.80;;;12.23;;
13743;SDS011;6943;52.368;9.966;2023-04-06T02:28:47;16.50;;;13.10;;
13743;SDS011;6943;52.368;9.966;2023-04-06T02:31:12;14.70;;;12.13;;
13743;SDS011;6943;52.368;9.966;2023-04-06T02:33:39;14.90;;;13.30;;
13743;SDS011;6943;52.368;9.966;2023-04-06T02:36:05;16.73;;;14.30;;
13743;SDS011;6943;52.368;9.966;2023-04-06T02:38:30;17.23;;;13.87;;
13743;SDS011;6943;52.368;9.966;2023-04-06T02:40:56;16.30;;;13.57;;
13743;SDS011;6943;52.368;9.966;2023-04-06T02:43:21;16.47;;;13.30;;
13743;SDS011;6943;52.368;9.966;2023-04-06T02:45:47;14.23;;;12.73;;
13743;SDS011;6943;52.368;9.966;2023-04-06T02:48:12;14.93;;;12.63;;
13743;SDS011;6943;52.368;9.966;2023-04-06T02:50:38;15.27;;;13.07;;
13743;SDS011;6943;52.368;9.966;2023-04-06T02:53:03;17.87;;;13.90;;
13743;SDS011;6943;52.368;9.966;2023-04-06T02:55:29;13.50;;;11.90;;
13743;SDS011;6943;52.368;9.966;2023-04-06T02:57:55;15.33;;;13.37;;
13743;SDS011;6943;52.368;9.966;2023-04-06T03:00:20;17.73;;;12.63;;
13743;SDS011;6943;52.368;9.966;2023-04-06T03:02:45;15.63;;;12.33;;
13743;SDS011;6943;52.368;9.966;2023-04-06T03:05:11;15.57;;;12.13;;
13743;SDS011;6943;52.368;9.966;2023-04-06T03:07:36;13.87;;;12.37;;
13743;SDS011;6943;52.368;9.966;2023-04-06T03:10:02;13.67;;;11.50;;
13743;SDS011;6943;52.368;9.966;2023-04-06T03:12:28;14.77;;;11.80;;
13743;SDS011;6943;52.368;9.966;2023-04-06T03:14:53;14.60;;;12.10;;
13743;SDS011;6943;52.368;9.966;2023-04-06T03:17:19;13.30;;;11.27;;
13743;SDS011;6943;52.368;9.966;2023-04-06T03:19:44;16.47;;;11.67;;
13743;SDS011;6943;52.368;9.966;2023-04-06T03:22:10;15.73;;;12.47;;
13743;SDS011;6943;52.368;9.966;2023-04-06T03:24:35;14.63;;;11.53;;
13743;SDS011;6943;52.368;9.966;2023-04-06T03:27:01;17.00;;;12.03;;
13743;SDS011;6943;52.368;9.966;2023-04-06T03:29:26;15.13;;;12.23;;
13743;SDS011;6943;52.368;9.966;2023-04-06T03:31:52;14.93;;;12.23;;
13743;SDS011;6943;52.368;9.966;2023-04-06T03:34:17;17.77;;;11.67;;
13743;SDS011;6943;52.368;9.966;2023-04-06T03:36:43;14.67;;;11.60;;
13743;SDS011;6943;52.368;9.966;2023-04-06T03:39:08;15.90;;;11.37;;
13743;SDS011;6943;52.368;9.966;2023-04-06T03:41:33;15.63;;;11.53;;
13743;SDS011;6943;52.368;9.966;2023-04-06T03:43:59;14.80;;;10.63;;
13743;SDS011;6943;52.368;9.966;2023-04-06T03:46:24;14.73;;;11.07;;
13743;SDS011;6943;52.368;9.966;2023-04-06T03:48:50;14.83;;;11.57;;
13743;SDS011;6943;52.368;9.966;2023-04-06T03:51:15;17.33;;;12.47;;
13743;SDS011;6943;52.368;9.966;2023-04-06T03:53:41;16.20;;;11.03;;
13743;SDS011;6943;52.368;9.966;2023-04-06T03:56:06;11.73;;;9.63;;
13743;SDS011;6943;52.368;9.966;2023-04-06T03:58:32;11.30;;;10.10;;
13743;SDS011;6943;52.368;9.966;2023-04-06T04:00:57;13.57;;;10.83;;
13743;SDS011;6943;52.368;9.966;2023-04-06T04:03:23;12.07;;;9.90;;
13743;SDS011;6943;52.368;9.966;2023-04-06T04:05:50;13.63;;;9.67;;
13743;SDS011;6943;52.368;9.966;2023-04-06T04:08:16;14.03;;;10.30;;
13743;SDS011;6943;52.368;9.966;2023-04-06T04:10:41;11.70;;;9.67;;
13743;SDS011;6943;52.368;9.966;2023-04-06T04:13:07;12.67;;;9.97;;
13743;SDS011;6943;52.368;9.966;2023-04-06T04:15:32;11.37;;;9.97;;
13743;SDS011;6943;52.368;9.966;2023-04-06T04:17:58;11.87;;;9.67;;
13743;SDS011;6943;52.368;9.966;2023-04-06T04:20:23;10.67;;;8.97;;
13743;SDS011;6943;52.368;9.966;2023-04-06T04:22:49;11.23;;;9.33;;
13743;SDS011;6943;52.368;9.966;2023-04-06T04:25:14;13.47;;;9.27;;
13743;SDS011;6943;52.368;9.966;2023-04-06T04:27:40;13.20;;;8.83;;
13743;SDS011;6943;52.368;9.966;2023-04-06T04:30:05;10.97;;;8.70;;
13743;SDS011;6943;52.368;9.966;2023-04-06T04:32:31;13.83;;;10.03;;
13743;SDS011;6943;52.368;9.966;2023-04-06T04:34:57;13.77;;;10.30;;
13743;SDS011;6943;52.368;9.966;2023-04-06T04:37:22;10.83;;;9.10;;
13743;SDS011;6943;52.368;9.966;2023-04-06T04:39:48;10.13;;;8.60;;
13743;SDS011;6943;52.368;9.966;2023-04-06T04:42:13;10.83;;;8.40;;
13743;SDS011;6943;52.368;9.966;2023-04-06T04:44:39;11.23;;;8.63;;
13743;SDS011;6943;52.368;9.966;2023-04-06T04:47:04;12.80;;;9.00;;
13743;SDS011;6943;52.368;9.966;2023-04-06T04:49:30;9.90;;;8.90;;
13743;SDS011;6943;52.368;9.966;2023-04-06T04:51:56;9.77;;;8.77;;
13743;SDS011;6943;52.368;9.966;2023-04-06T04:54:21;9.83;;;8.23;;
13743;SDS011;6943;52.368;9.966;2023-04-06T04:56:47;10.30;;;8.37;;
13743;SDS011;6943;52.368;9.966;2023-04-06T04:59:12;10.63;;;8.17;;
13743;SDS011;6943;52.368;9.966;2023-04-06T05:01:38;9.00;;;8.03;;
13743;SDS011;6943;52.368;9.966;2023-04-06T05:04:03;10.50;;;8.40;;
13743;SDS011;6943;52.368;9.966;2023-04-06T05:06:29;10.97;;;8.23;;
13743;SDS011;6943;52.368;9.966;2023-04-06T05:08:54;13.30;;;8.13;;
13743;SDS011;6943;52.368;9.966;2023-04-06T05:11:20;10.40;;;7.70;;
13743;SDS011;6943;52.368;9.966;2023-04-06T05:13:46;11.90;;;8.63;;
13743;SDS011;6943;52.368;9.966;2023-04-06T05:16:11;10.50;;;7.83;;
13743;SDS011;6943;52.368;9.966;2023-04-06T05:18:37;11.13;;;7.87;;
13743;SDS011;6943;52.368;9.966;2023-04-06T05:21:02;11.83;;;7.63;;
13743;SDS011;6943;52.368;9.966;2023-04-06T05:23:28;14.00;;;7.80;;
13743;SDS011;6943;52.368;9.966;2023-04-06T05:25:53;10.70;;;7.23;;
13743;SDS011;6943;52.368;9.966;2023-04-06T05:28:19;10.10;;;7.47;;
13743;SDS011;6943;52.368;9.966;2023-04-06T05:30:45;9.40;;;7.00;;
13743;SDS011;6943;52.368;9.966;2023-04-06T05:33:11;10.53;;;7.63;;
13743;SDS011;6943;52.368;9.966;2023-04-06T05:35:37;10.10;;;6.93;;
13743;SDS011;6943;52.368;9.966;2023-04-06T05:38:02;8.53;;;6.93;;
13743;SDS011;6943;52.368;9.966;2023-04-06T05:40:27;9.23;;;7.30;;
13743;SDS011;6943;52.368;9.966;2023-04-06T05:42:53;9.97;;;7.43;;
13743;SDS011;6943;52.368;9.966;2023-04-06T05:45:19;10.30;;;7.20;;
13743;SDS011;6943;52.368;9.966;2023-04-06T05:47:45;12.07;;;7.67;;
13743;SDS011;6943;52.368;9.966;2023-04-06T05:50:11;9.63;;;7.20;;
13743;SDS011;6943;52.368;9.966;2023-04-06T05:52:37;12.23;;;7.47;;
13743;SDS011;6943;52.368;9.966;2023-04-06T05:55:03;7.83;;;7.03;;
13743;SDS011;6943;52.368;9.966;2023-04-06T05:57:28;9.57;;;7.37;;
13743;SDS011;6943;52.368;9.966;2023-04-06T05:59:54;10.00;;;7.53;;
13743;SDS011;6943;52.368;9.966;2023-04-06T06:02:20;9.67;;;7.50;;
13743;SDS011;6943;52.368;9.966;2023-04-06T06:04:46;9.50;;;7.97;;
13743;SDS011;6943;52.368;9.966;2023-04-06T06:07:11;7.93;;;7.13;;
13743;SDS011;6943;52.368;9.966;2023-04-06T06:09:37;9.47;;;7.37;;
13743;SDS011;6943;52.368;9.966;2023-04-06T06:12:02;8.63;;;6.53;;
13743;SDS011;6943;52.368;9.966;2023-04-06T06:14:28;7.77;;;6.53;;
13743;SDS011;6943;52.368;9.966;2023-04-06T06:16:53;7.20;;;6.27;;
13743;SDS011;6943;52.368;9.966;2023-04-06T06:19:19;6.63;;;6.03;;
13743;SDS011;6943;52.368;9.966;2023-04-06T06:21:45;6.93;;;6.07;;
13743;SDS011;6943;52.368;9.966;2023-04-06T06:24:10;7.83;;;6.20;;
13743;SDS011;6943;52.368;9.966;2023-04-06T06:26:36;8.93;;;6.43;;
13743;SDS011;6943;52.368;9.966;2023-04-06T06:29:02;8.27;;;7.33;;
13743;SDS011;6943;52.368;9.966;2023-04-06T06:31:30;7.70;;;6.63;;
13743;SDS011;6943;52.368;9.966;2023-04-06T06:33:55;7.70;;;6.30;;
13743;SDS011;6943;52.368;9.966;2023-04-06T06:36:21;10.37;;;6.60;;
13743;SDS011;6943;52.368;9.966;2023-04-06T06:38:46;9.37;;;7.47;;
13743;SDS011;6943;52.368;9.966;2023-04-06T06:41:11;7.10;;;6.50;;
13743;SDS011;6943;52.368;9.966;2023-04-06T06:43:37;7.47;;;6.37;;
13743;SDS011;6943;52.368;9.966;2023-04-06T06:46:03;7.67;;;6.20;;
13743;SDS011;6943;52.368;9.966;2023-04-06T06:48:29;6.90;;;6.20;;
13743;SDS011;6943;52.368;9.966;2023-04-06T06:50:55;7.67;;;6.63;;
13743;SDS011;6943;52.368;9.966;2023-04-06T06:53:21;8.17;;;6.60;;
13743;SDS011;6943;52.368;9.966;2023-04-06T06:55:46;7.10;;;6.40;;
13743;SDS011;6943;52.368;9.966;2023-04-06T06:58:13;7.33;;;6.57;;
13743;SDS011;6943;52.368;9.966;2023-04-06T07:00:39;6.97;;;6.17;;
13743;SDS011;6943;52.368;9.966;2023-04-06T07:03:05;10.67;;;6.40;;
13743;SDS011;6943;52.368;9.966;2023-04-06T07:05:30;8.03;;;6.07;;
13743;SDS011;6943;52.368;9.966;2023-04-06T07:07:56;7.63;;;6.93;;
13743;SDS011;6943;52.368;9.966;2023-04-06T07:10:21;7.60;;;6.90;;
13743;SDS011;6943;52.368;9.966;2023-04-06T07:12:47;8.33;;;6.83;;
13743;SDS011;6943;52.368;9.966;2023-04-06T07:15:13;7.33;;;6.67;;
13743;SDS011;6943;52.368;9.966;2023-04-06T07:17:38;7.73;;;6.23;;
13743;SDS011;6943;52.368;9.966;2023-04-06T07:20:06;8.67;;;7.40;;
13743;SDS011;6943;52.368;9.966;2023-04-06T07:22:32;7.37;;;6.17;;
13743;SDS011;6943;52.368;9.966;2023-04-06T07:24:57;8.27;;;6.63;;
13743;SDS011;6943;52.368;9.966;2023-04-06T07:27:22;7.60;;;6.80;;
13743;SDS011;6943;52.368;9.966;2023-04-06T07:29:48;7.60;;;6.73;;
13743;SDS011;6943;52.368;9.966;2023-04-06T07:32:13;6.77;;;6.10;;
13743;SDS011;6943;52.368;9.966;2023-04-06T07:34:39;7.17;;;6.03;;
13743;SDS011;6943;52.368;9.966;2023-04-06T07:37:05;7.63;;;6.73;;
13743;SDS011;6943;52.368;9.966;2023-04-06T07:39:30;7.07;;;6.33;;
13743;SDS011;6943;52.368;9.966;2023-04-06T07:41:56;6.70;;;6.10;;
13743;SDS011;6943;52.368;9.966;2023-04-06T07:44:21;7.90;;;6.63;;
13743;SDS011;6943;52.368;9.966;2023-04-06T07:46:47;7.17;;;6.17;;
13743;SDS011;6943;52.368;9.966;2023-04-06T07:49:12;7.53;;;6.77;;
13743;SDS011;6943;52.368;9.966;2023-04-06T07:51:38;6.33;;;5.47;;
13743;SDS011;6943;52.368;9.966;2023-04-06T07:54:04;7.60;;;6.70;;
13743;SDS011;6943;52.368;9.966;2023-04-06T07:56:30;9.17;;;5.80;;
13743;SDS011;6943;52.368;9.966;2023-04-06T07:58:56;6.90;;;6.27;;
13743;SDS011;6943;52.368;9.966;2023-04-06T08:01:22;6.20;;;5.60;;
13743;SDS011;6943;52.368;9.966;2023-04-06T08:03:48;6.50;;;5.90;;
13743;SDS011;6943;52.368;9.966;2023-04-06T08:06:15;6.40;;;5.80;;
13743;SDS011;6943;52.368;9.966;2023-04-06T08:08:41;6.10;;;5.50;;
13743;SDS011;6943;52.368;9.966;2023-04-06T08:11:08;6.83;;;6.13;;
13743;SDS011;6943;52.368;9.966;2023-04-06T08:13:34;7.00;;;5.40;;
13743;SDS011;6943;52.368;9.966;2023-04-06T08:16:00;7.07;;;6.37;;
13743;SDS011;6943;52.368;9.966;2023-04-06T08:18:26;6.00;;;5.50;;
13743;SDS011;6943;52.368;9.966;2023-04-06T08:20:51;6.60;;;6.00;;
13743;SDS011;6943;52.368;9.966;2023-04-06T08:23:17;6.43;;;5.83;;
13743;SDS011;6943;52.368;9.966;2023-04-06T08:25:42;7.27;;;5.83;;
13743;SDS011;6943;52.368;9.966;2023-04-06T08:28:08;7.63;;;6.40;;
13743;SDS011;6943;52.368;9.966;2023-04-06T08:30:34;6.10;;;5.50;;
13743;SDS011;6943;52.368;9.966;2023-04-06T08:33:00;7.47;;;6.03;;
13743;SDS011;6943;52.368;9.966;2023-04-06T08:35:26;6.83;;;6.03;;
13743;SDS011;6943;52.368;9.966;2023-04-06T08:37:52;6.53;;;5.90;;
13743;SDS011;6943;52.368;9.966;2023-04-06T08:40:20;6.90;;;6.20;;
13743;SDS011;6943;52.368;9.966;2023-04-06T08:42:49;7.20;;;6.33;;
13743;SDS011;6943;52.368;9.966;2023-04-06T08:45:17;6.47;;;5.87;;
13743;SDS011;6943;52.368;9.966;2023-04-06T08:47:46;6.87;;;6.03;;
13743;SDS011;6943;52.368;9.966;2023-04-06T08:50:13;6.80;;;6.20;;
13743;SDS011;6943;52.368;9.966;2023-04-06T08:52:41;7.03;;;6.33;;
13743;SDS011;6943;52.368;9.966;2023-04-06T08:55:08;7.90;;;6.70;;
13743;SDS011;6943;52.368;9.966;2023-04-06T08:57:33;7.00;;;6.40;;
13743;SDS011;6943;52.368;9.966;2023-04-06T09:00:01;7.03;;;6.33;;
13743;SDS011;6943;52.368;9.966;2023-04-06T09:02:27;9.63;;;6.53;;
13743;SDS011;6943;52.368;9.966;2023-04-06T09:04:53;6.97;;;6.27;;
13743;SDS011;6943;52.368;9.966;2023-04-06T09:07:19;6.70;;;6.03;;
13743;SDS011;6943;52.368;9.966;2023-04-06T09:09:46;7.53;;;6.70;;
13743;SDS011;6943;52.368;9.966;2023-04-06T09:12:29;7.30;;;6.57;;
13743;SDS011;6943;52.368;9.966;2023-04-06T09:14:55;6.60;;;6.00;;
13743;SDS011;6943;52.368;9.966;2023-04-06T09:17:31;9.50;;;7.27;;
13743;SDS011;6943;52.368;9.966;2023-04-06T09:19:59;7.00;;;6.33;;
13743;SDS011;6943;52.368;9.966;2023-04-06T09:22:25;7.43;;;6.73;;
13743;SDS011;6943;52.368;9.966;2023-04-06T09:24:59;9.10;;;6.30;;
13743;SDS011;6943;52.368;9.966;2023-04-06T09:27:34;8.47;;;6.33;;
13743;SDS011;6943;52.368;9.966;2023-04-06T09:30:04;8.67;;;6.07;;
13743;SDS011;6943;52.368;9.966;2023-04-06T09:32:30;8.67;;;6.27;;
13743;SDS011;6943;52.368;9.966;2023-04-06T09:35:06;9.67;;;6.70;;
13743;SDS011;6943;52.368;9.966;2023-04-06T09:37:34;8.63;;;6.60;;
13743;SDS011;6943;52.368;9.966;2023-04-06T09:40:03;9.07;;;6.70;;
13743;SDS011;6943;52.368;9.966;2023-04-06T09:42:30;8.03;;;6.10;;
13743;SDS011;6943;52.368;9.966;2023-04-06T09:44:56;7.93;;;6.37;;
13743;SDS011;6943;52.368;9.966;2023-04-06T09:47:22;9.93;;;6.80;;
13743;SDS011;6943;52.368;9.966;2023-04-06T09:49:48;7.23;;;6.17;;
13743;SDS011;6943;52.368;9.966;2023-04-06T09:52:16;7.97;;;6.80;;
13743;SDS011;6943;52.368;9.966;2023-04-06T09:54:45;8.03;;;6.83;;
13743;SDS011;6943;52.368;9.966;2023-04-06T10:00:21;8.37;;;6.47;;
13743;SDS011;6943;52.368;9.966;2023-04-06T10:02:51;10.10;;;6.43;;
13743;SDS011;6943;52.368;9.966;2023-04-06T10:05:35;6.80;;;6.10;;
13743;SDS011;6943;52.368;9.966;2023-04-06T10:08:08;7.90;;;6.73;;
13743;SDS011;6943;52.368;9.966;2023-04-06T10:10:35;7.00;;;5.93;;
13743;SDS011;6943;52.368;9.966;2023-04-06T10:13:01;7.77;;;6.30;;
13743;SDS011;6943;52.368;9.966;2023-04-06T10:15:28;8.77;;;6.50;;
13743;SDS011;6943;52.368;9.966;2023-04-06T10:17:55;7.80;;;6.93;;
13743;SDS011;6943;52.368;9.966;2023-04-06T10:22:58;7.33;;;6.30;;
13743;SDS011;6943;52.368;9.966;2023-04-06T10:25:40;10.00;;;6.20;;
13743;SDS011;6943;52.368;9.966;2023-04-06T10:28:20;10.03;;;7.27;;
13743;SDS011;6943;52.368;9.966;2023-04-06T10:30:46;8.27;;;7.47;;
13743;SDS011;6943;52.368;9.966;2023-04-06T10:33:16;7.73;;;6.93;;
13743;SDS011;6943;52.368;9.966;2023-04-06T10:35:42;7.40;;;6.40;;
13743;SDS011;6943;52.368;9.966;2023-04-06T10:38:08;11.47;;;7.90;;
13743;SDS011;6943;52.368;9.966;2023-04-06T10:40:37;8.53;;;6.43;;
13743;SDS011;6943;52.368;9.966;2023-04-06T10:43:07;7.27;;;6.57;;
13743;SDS011;6943;52.368;9.966;2023-04-06T10:45:34;8.80;;;6.23;;
13743;SDS011;6943;52.368;9.966;2023-04-06T10:48:01;9.70;;;6.60;;
13743;SDS011;6943;52.368;9.966;2023-04-06T10:50:44;7.17;;;6.47;;
13743;SDS011;6943;52.368;9.966;2023-04-06T10:53:11;10.27;;;7.33;;
13743;SDS011;6943;52.368;9.966;2023-04-06T10:55:50;7.90;;;7.10;;
13743;SDS011;6943;52.368;9.966;2023-04-06T10:58:17;8.03;;;6.63;;
13743;SDS011;6943;52.368;9.966;2023-04-06T11:00:46;7.43;;;6.47;;
13743;SDS011;6943;52.368;9.966;2023-04-06T11:03:13;8.10;;;6.63;;
13743;SDS011;6943;52.368;9.966;2023-04-06T11:05:38;10.67;;;6.57;;
13743;SDS011;6943;52.368;9.966;2023-04-06T11:08:22;10.53;;;7.80;;
13743;SDS011;6943;52.368;9.966;2023-04-06T11:10:51;8.83;;;6.80;;
13743;SDS011;6943;52.368;9.966;2023-04-06T11:13:17;8.63;;;7.50;;
13743;SDS011;6943;52.368;9.966;2023-04-06T11:15:43;7.37;;;6.67;;
13743;SDS011;6943;52.368;9.966;2023-04-06T11:18:08;7.23;;;6.47;;
13743;SDS011;6943;52.368;9.966;2023-04-06T11:20:36;8.40;;;6.97;;
13743;SDS011;6943;52.368;9.966;2023-04-06T11:23:01;9.37;;;6.77;;
13743;SDS011;6943;52.368;9.966;2023-04-06T11:25:28;9.00;;;7.20;;
13743;SDS011;6943;52.368;9.966;2023-04-06T11:27:56;8.87;;;6.40;;
13743;SDS011;6943;52.368;9.966;2023-04-06T11:30:22;8.20;;;6.50;;
13743;SDS011;6943;52.368;9.966;2023-04-06T11:32:47;8.03;;;7.23;;
13743;SDS011;6943;52.368;9.966;2023-04-06T11:35:20;11.53;;;7.30;;
13743;SDS011;6943;52.368;9.966;2023-04-06T11:37:48;9.53;;;7.53;;
13743;SDS011;6943;52.368;9.966;2023-04-06T11:40:14;8.37;;;7.47;;
13743;SDS011;6943;52.368;9.966;2023-04-06T11:42:40;9.40;;;7.70;;
13743;SDS011;6943;52.368;9.966;2023-04-06T11:45:07;7.40;;;6.60;;
13743;SDS011;6943;52.368;9.966;2023-04-06T11:47:34;8.40;;;7.50;;
13743;SDS011;6943;52.368;9.966;2023-04-06T11:50:08;8.97;;;6.53;;
13743;SDS011;6943;52.368;9.966;2023-04-06T11:52:38;8.13;;;7.33;;
13743;SDS011;6943;52.368;9.966;2023-04-06T11:55:14;8.13;;;7.27;;
13743;SDS011;6943;52.368;9.966;2023-04-06T11:57:42;7.90;;;7.10;;
13743;SDS011;6943;52.368;9.966;2023-04-06T12:00:08;9.43;;;7.37;;
13743;SDS011;6943;52.368;9.966;2023-04-06T12:02:34;9.50;;;7.60;;
13743;SDS011;6943;52.368;9.966;2023-04-06T12:05:01;9.50;;;7.73;;
13743;SDS011;6943;52.368;9.966;2023-04-06T12:07:28;7.53;;;6.70;;
13743;SDS011;6943;52.368;9.966;2023-04-06T12:09:55;8.20;;;7.27;;
13743;SDS011;6943;52.368;9.966;2023-04-06T12:12:20;8.63;;;7.13;;
13743;SDS011;6943;52.368;9.966;2023-04-06T12:14:46;8.20;;;7.10;;
13743;SDS011;6943;52.368;9.966;2023-04-06T12:17:11;10.30;;;7.83;;
13743;SDS011;6943;52.368;9.966;2023-04-06T12:19:37;8.10;;;7.30;;
13743;SDS011;6943;52.368;9.966;2023-04-06T12:22:02;9.43;;;7.07;;
13743;SDS011;6943;52.368;9.966;2023-04-06T12:24:28;9.70;;;7.47;;
13743;SDS011;6943;52.368;9.966;2023-04-06T12:26:54;7.90;;;7.03;;
13743;SDS011;6943;52.368;9.966;2023-04-06T12:29:20;11.50;;;7.27;;
13743;SDS011;6943;52.368;9.966;2023-04-06T12:31:45;8.60;;;7.07;;
13743;SDS011;6943;52.368;9.966;2023-04-06T12:34:11;8.13;;;7.43;;
13743;SDS011;6943;52.368;9.966;2023-04-06T12:36:36;8.13;;;6.93;;
13743;SDS011;6943;52.368;9.966;2023-04-06T12:39:03;8.63;;;7.83;;
13743;SDS011;6943;52.368;9.966;2023-04-06T12:41:29;9.10;;;7.83;;
13743;SDS011;6943;52.368;9.966;2023-04-06T12:43:55;8.40;;;7.03;;
13743;SDS011;6943;52.368;9.966;2023-04-06T12:46:21;8.77;;;7.13;;
13743;SDS011;6943;52.368;9.966;2023-04-06T12:48:47;8.57;;;7.13;;
13743;SDS011;6943;52.368;9.966;2023-04-06T12:51:13;9.13;;;7.80;;
13743;SDS011;6943;52.368;9.966;2023-04-06T12:53:39;9.30;;;7.80;;
13743;SDS011;6943;52.368;9.966;2023-04-06T12:56:11;8.77;;;7.90;;
13743;SDS011;6943;52.368;9.966;2023-04-06T12:58:42;9.30;;;8.30;;
13743;SDS011;6943;52.368;9.966;2023-04-06T13:01:08;9.20;;;8.23;;
13743;SDS011;6943;52.368;9.966;2023-04-06T13:03:34;9.97;;;8.00;;
13743;SDS011;6943;52.368;9.966;2023-04-06T13:06:00;10.73;;;8.53;;
13743;SDS011;6943;52.368;9.966;2023-04-06T13:08:26;9.33;;;8.33;;
13743;SDS011;6943;52.368;9.966;2023-04-06T13:10:52;10.03;;;8.47;;
13743;SDS011;6943;52.368;9.966;2023-04-06T13:13:21;11.73;;;8.97;;
13743;SDS011;6943;52.368;9.966;2023-04-06T13:15:48;11.87;;;8.30;;
13743;SDS011;6943;52.368;9.966;2023-04-06T13:18:14;9.13;;;7.97;;
13743;SDS011;6943;52.368;9.966;2023-04-06T13:20:40;11.83;;;8.87;;
13743;SDS011;6943;52.368;9.966;2023-04-06T13:23:06;10.83;;;8.77;;
13743;SDS011;6943;52.368;9.966;2023-04-06T13:25:32;10.47;;;9.33;;
13743;SDS011;6943;52.368;9.966;2023-04-06T13:27:58;10.07;;;9.07;;
13743;SDS011;6943;52.368;9.966;2023-04-06T13:30:23;9.87;;;8.83;;
13743;SDS011;6943;52.368;9.966;2023-04-06T13:32:49;9.53;;;8.57;;
13743;SDS011;6943;52.368;9.966;2023-04-06T13:35:15;8.57;;;7.73;;
13743;SDS011;6943;52.368;9.966;2023-04-06T13:37:41;8.37;;;7.47;;
13743;SDS011;6943;52.368;9.966;2023-04-06T13:40:07;10.00;;;7.77;;
13743;SDS011;6943;52.368;9.966;2023-04-06T13:42:33;8.37;;;7.23;;
13743;SDS011;6943;52.368;9.966;2023-04-06T13:45:00;8.50;;;7.67;;
13743;SDS011;6943;52.368;9.966;2023-04-06T13:47:25;9.73;;;7.63;;
13743;SDS011;6943;52.368;9.966;2023-04-06T13:49:51;8.27;;;7.50;;
13743;SDS011;6943;52.368;9.966;2023-04-06T13:52:17;9.00;;;7.83;;
13743;SDS011;6943;52.368;9.966;2023-04-06T13:54:44;9.13;;;8.17;;
13743;SDS011;6943;52.368;9.966;2023-04-06T13:57:09;10.33;;;8.03;;
13743;SDS011;6943;52.368;9.966;2023-04-06T13:59:35;9.33;;;7.73;;
13743;SDS011;6943;52.368;9.966;2023-04-06T14:02:02;9.03;;;8.13;;
13743;SDS011;6943;52.368;9.966;2023-04-06T14:04:28;8.90;;;7.50;;
13743;SDS011;6943;52.368;9.966;2023-04-06T14:06:54;8.27;;;7.30;;
13743;SDS011;6943;52.368;9.966;2023-04-06T14:09:19;10.37;;;7.60;;
13743;SDS011;6943;52.368;9.966;2023-04-06T14:11:45;8.37;;;7.27;;
13743;SDS011;6943;52.368;9.966;2023-04-06T14:14:11;9.37;;;7.90;;
13743;SDS011;6943;52.368;9.966;2023-04-06T14:16:36;8.50;;;7.70;;
13743;SDS011;6943;52.368;9.966;2023-04-06T14:19:02;12.00;;;7.90;;
13743;SDS011;6943;52.368;9.966;2023-04-06T14:21:27;8.67;;;7.47;;
13743;SDS011;6943;52.368;9.966;2023-04-06T14:23:53;9.93;;;8.40;;
13743;SDS011;6943;52.368;9.966;2023-04-06T14:26:18;9.53;;;7.67;;
13743;SDS011;6943;52.368;9.966;2023-04-06T14:28:44;8.87;;;7.60;;
13743;SDS011;6943;52.368;9.966;2023-04-06T14:31:14;10.07;;;7.80;;
13743;SDS011;6943;52.368;9.966;2023-04-06T14:33:40;11.10;;;8.33;;
13743;SDS011;6943;52.368;9.966;2023-04-06T14:36:07;9.50;;;8.07;;
13743;SDS011;6943;52.368;9.966;2023-04-06T14:38:33;9.63;;;8.13;;
13743;SDS011;6943;52.368;9.966;2023-04-06T14:40:58;8.60;;;7.70;;
13743;SDS011;6943;52.368;9.966;2023-04-06T14:43:24;9.67;;;7.43;;
13743;SDS011;6943;52.368;9.966;2023-04-06T14:45:50;7.93;;;6.80;;
13743;SDS011;6943;52.368;9.966;2023-04-06T14:48:16;8.57;;;7.37;;
13743;SDS011;6943;52.368;9.966;2023-04-06T14:50:51;10.13;;;7.50;;